sensor_id;sensor_type;location;lat;lon;timestamp;P1;durP1;ratioP1;P2;durP2;ratioP2
53594;SDS011;39479;45.720;11.310;2024-02-26T00:01:27;16.17;;;9.85;;
53594;SDS011;39479;45.720;11.310;2024-02-26T00:03:53;12.80;;;9.88;;
53594;SDS011;39479;45.720;11.310;2024-02-26T00:06:24;11.57;;;9.52;;
53594;SDS011;39479;45.720;11.310;2024-02-26T00:08:50;12.48;;;9.60;;
53594;SDS011;39479;45.720;11.310;2024-02-26T00:11:16;11.68;;;9.68;;
53594;SDS011;39479;45.720;11.310;2024-02-26T00:13:42;13.07;;;10.05;;
53594;SDS011;39479;45.720;11.310;2024-02-26T00:16:08;11.77;;;10.10;;
53594;SDS011;39479;45.720;11.310;2024-02-26T00:18:34;12.48;;;10.52;;
53594;SDS011;39479;45.720;11.310;2024-02-26T00:21:00;13.32;;;10.20;;
53594;SDS011;39479;45.720;11.310;2024-02-26T00:23:26;13.77;;;9.93;;
53594;SDS011;39479;45.720;11.310;2024-02-26T00:25:52;14.57;;;10.63;;
53594;SDS011;39479;45.720;11.310;2024-02-26T00:28:18;12.20;;;9.80;;
53594;SDS011;39479;45.720;11.310;2024-02-26T00:30:45;10.63;;;9.38;;
53594;SDS011;39479;45.720;11.310;2024-02-26T00:33:11;14.75;;;9.70;;
53594;SDS011;39479;45.720;11.310;2024-02-26T00:35:37;14.63;;;10.18;;
53594;SDS011;39479;45.720;11.310;2024-02-26T00:38:03;11.98;;;9.95;;
53594;SDS011;39479;45.720;11.310;2024-02-26T00:40:30;12.40;;;9.32;;
53594;SDS011;39479;45.720;11.310;2024-02-26T00:42:56;14.40;;;10.65;;
53594;SDS011;39479;45.720;11.310;2024-02-26T00:45:22;14.32;;;11.25;;
53594;SDS011;39479;45.720;11.310;2024-02-26T00:47:48;13.77;;;10.85;;
53594;SDS011;39479;45.720;11.310;2024-02-26T00:50:15;13.32;;;10.95;;
53594;SDS011;39479;45.720;11.310;2024-02-26T00:52:41;17.20;;;10.90;;
53594;SDS011;39479;45.720;11.310;2024-02-26T00:55:07;13.80;;;10.18;;
53594;SDS011;39479;45.720;11.310;2024-02-26T00:57:34;14.35;;;10.98;;
53594;SDS011;39479;45.720;11.310;2024-02-26T01:00:00;13.57;;;10.52;;
53594;SDS011;39479;45.720;11.310;2024-02-26T01:02:26;12.05;;;10.48;;
53594;SDS011;39479;45.720;11.310;2024-02-26T01:04:52;13.50;;;10.48;;
53594;SDS011;39479;45.720;11.310;2024-02-26T01:07:18;15.32;;;11.35;;
53594;SDS011;39479;45.720;11.310;2024-02-26T01:09:44;13.48;;;10.10;;
53594;SDS011;39479;45.720;11.310;2024-02-26T01:12:10;13.68;;;10.75;;
53594;SDS011;39479;45.720;11.310;2024-02-26T01:14:36;13.45;;;10.77;;
53594;SDS011;39479;45.720;11.310;2024-02-26T01:17:03;13.25;;;10.93;;
53594;SDS011;39479;45.720;11.310;2024-02-26T01:19:29;14.25;;;11.35;;
53594;SDS011;39479;45.720;11.310;2024-02-26T01:21:55;11.43;;;10.02;;
53594;SDS011;39479;45.720;11.310;2024-02-26T01:24:21;11.77;;;10.43;;
53594;SDS011;39479;45.720;11.310;2024-02-26T01:26:47;13.25;;;10.93;;
53594;SDS011;39479;45.720;11.310;2024-02-26T01:29:13;14.90;;;10.93;;
53594;SDS011;39479;45.720;11.310;2024-02-26T01:31:39;13.15;;;11.65;;
53594;SDS011;39479;45.720;11.310;2024-02-26T01:34:05;18.20;;;14.70;;
53594;SDS011;39479;45.720;11.310;2024-02-26T01:36:31;17.90;;;14.18;;
53594;SDS011;39479;45.720;11.310;2024-02-26T01:38:57;14.65;;;12.30;;
53594;SDS011;39479;45.720;11.310;2024-02-26T01:41:23;17.80;;;11.75;;
53594;SDS011;39479;45.720;11.310;2024-02-26T01:43:50;15.73;;;11.57;;
53594;SDS011;39479;45.720;11.310;2024-02-26T01:46:16;14.20;;;12.23;;
53594;SDS011;39479;45.720;11.310;2024-02-26T01:48:42;15.13;;;12.75;;
53594;SDS011;39479;45.720;11.310;2024-02-26T01:51:08;15.80;;;12.48;;
53594;SDS011;39479;45.720;11.310;2024-02-26T01:53:35;13.52;;;11.95;;
53594;SDS011;39479;45.720;11.310;2024-02-26T01:56:01;16.67;;;12.55;;
53594;SDS011;39479;45.720;11.310;2024-02-26T01:58:27;17.02;;;12.15;;
53594;SDS011;39479;45.720;11.310;2024-02-26T02:00:55;17.85;;;12.68;;
53594;SDS011;39479;45.720;11.310;2024-02-26T02:03:22;15.73;;;12.68;;
53594;SDS011;39479;45.720;11.310;2024-02-26T02:05:48;15.43;;;12.57;;
53594;SDS011;39479;45.720;11.310;2024-02-26T02:08:14;15.20;;;12.38;;
53594;SDS011;39479;45.720;11.310;2024-02-26T02:10:41;15.25;;;12.57;;
53594;SDS011;39479;45.720;11.310;2024-02-26T02:13:07;16.67;;;12.35;;
53594;SDS011;39479;45.720;11.310;2024-02-26T02:15:34;14.13;;;12.63;;
53594;SDS011;39479;45.720;11.310;2024-02-26T02:18:00;17.52;;;12.25;;
53594;SDS011;39479;45.720;11.310;2024-02-26T02:20:32;16.98;;;13.45;;
53594;SDS011;39479;45.720;11.310;2024-02-26T02:22:59;16.38;;;13.15;;
53594;SDS011;39479;45.720;11.310;2024-02-26T02:25:25;16.27;;;13.80;;
53594;SDS011;39479;45.720;11.310;2024-02-26T02:27:52;16.45;;;13.63;;
53594;SDS011;39479;45.720;11.310;2024-02-26T02:30:19;19.20;;;13.88;;
53594;SDS011;39479;45.720;11.310;2024-02-26T02:32:45;17.52;;;13.80;;
53594;SDS011;39479;45.720;11.310;2024-02-26T02:35:11;15.68;;;13.05;;
53594;SDS011;39479;45.720;11.310;2024-02-26T02:37:37;16.77;;;13.43;;
53594;SDS011;39479;45.720;11.310;2024-02-26T02:40:03;17.05;;;13.73;;
53594;SDS011;39479;45.720;11.310;2024-02-26T02:42:30;16.13;;;14.10;;
53594;SDS011;39479;45.720;11.310;2024-02-26T02:44:56;17.38;;;13.13;;
53594;SDS011;39479;45.720;11.310;2024-02-26T02:47:22;16.38;;;14.05;;
53594;SDS011;39479;45.720;11.310;2024-02-26T02:49:48;17.85;;;13.77;;
53594;SDS011;39479;45.720;11.310;2024-02-26T02:52:14;18.17;;;13.55;;
53594;SDS011;39479;45.720;11.310;2024-02-26T02:54:40;16.52;;;14.02;;
53594;SDS011;39479;45.720;11.310;2024-02-26T02:57:07;16.52;;;13.30;;
53594;SDS011;39479;45.720;11.310;2024-02-26T02:59:34;18.45;;;13.32;;
53594;SDS011;39479;45.720;11.310;2024-02-26T03:02:00;16.75;;;11.70;;
53594;SDS011;39479;45.720;11.310;2024-02-26T03:04:26;15.48;;;13.15;;
53594;SDS011;39479;45.720;11.310;2024-02-26T03:06:52;13.82;;;11.52;;
53594;SDS011;39479;45.720;11.310;2024-02-26T03:09:18;18.42;;;14.32;;
53594;SDS011;39479;45.720;11.310;2024-02-26T03:11:44;18.27;;;13.95;;
53594;SDS011;39479;45.720;11.310;2024-02-26T03:14:10;17.00;;;13.15;;
53594;SDS011;39479;45.720;11.310;2024-02-26T03:16:36;15.73;;;11.40;;
53594;SDS011;39479;45.720;11.310;2024-02-26T03:19:02;11.82;;;9.60;;
53594;SDS011;39479;45.720;11.310;2024-02-26T03:21:28;10.82;;;9.10;;
53594;SDS011;39479;45.720;11.310;2024-02-26T03:23:54;12.88;;;8.27;;
53594;SDS011;39479;45.720;11.310;2024-02-26T03:26:20;18.35;;;14.80;;
53594;SDS011;39479;45.720;11.310;2024-02-26T03:28:46;18.38;;;15.32;;
53594;SDS011;39479;45.720;11.310;2024-02-26T03:31:13;18.70;;;14.85;;
53594;SDS011;39479;45.720;11.310;2024-02-26T03:33:39;18.13;;;13.93;;
53594;SDS011;39479;45.720;11.310;2024-02-26T03:36:06;18.35;;;14.38;;
53594;SDS011;39479;45.720;11.310;2024-02-26T03:38:32;16.17;;;12.52;;
53594;SDS011;39479;45.720;11.310;2024-02-26T03:40:58;19.55;;;13.82;;
53594;SDS011;39479;45.720;11.310;2024-02-26T03:43:24;21.58;;;15.30;;
53594;SDS011;39479;45.720;11.310;2024-02-26T03:45:50;19.55;;;14.43;;
53594;SDS011;39479;45.720;11.310;2024-02-26T03:48:16;19.50;;;15.40;;
53594;SDS011;39479;45.720;11.310;2024-02-26T03:50:42;20.98;;;15.10;;
53594;SDS011;39479;45.720;11.310;2024-02-26T03:53:08;19.23;;;15.32;;
53594;SDS011;39479;45.720;11.310;2024-02-26T03:55:37;15.90;;;13.77;;
53594;SDS011;39479;45.720;11.310;2024-02-26T03:58:03;18.10;;;12.93;;
53594;SDS011;39479;45.720;11.310;2024-02-26T04:00:29;18.50;;;15.38;;
53594;SDS011;39479;45.720;11.310;2024-02-26T04:02:55;16.45;;;13.82;;
53594;SDS011;39479;45.720;11.310;2024-02-26T04:05:21;16.05;;;13.18;;
53594;SDS011;39479;45.720;11.310;2024-02-26T04:07:48;16.30;;;13.30;;
53594;SDS011;39479;45.720;11.310;2024-02-26T04:10:14;16.83;;;13.50;;
53594;SDS011;39479;45.720;11.310;2024-02-26T04:12:40;15.98;;;14.05;;
53594;SDS011;39479;45.720;11.310;2024-02-26T04:15:09;14.77;;;13.05;;
53594;SDS011;39479;45.720;11.310;2024-02-26T04:17:36;17.90;;;13.80;;
53594;SDS011;39479;45.720;11.310;2024-02-26T04:20:04;19.42;;;14.90;;
53594;SDS011;39479;45.720;11.310;2024-02-26T04:22:33;20.77;;;13.77;;
53594;SDS011;39479;45.720;11.310;2024-02-26T04:24:59;18.63;;;13.90;;
53594;SDS011;39479;45.720;11.310;2024-02-26T04:27:25;17.48;;;14.57;;
53594;SDS011;39479;45.720;11.310;2024-02-26T04:29:51;16.92;;;13.45;;
53594;SDS011;39479;45.720;11.310;2024-02-26T04:32:17;18.73;;;14.23;;
53594;SDS011;39479;45.720;11.310;2024-02-26T04:34:43;17.33;;;14.05;;
53594;SDS011;39479;45.720;11.310;2024-02-26T04:37:09;20.05;;;13.90;;
53594;SDS011;39479;45.720;11.310;2024-02-26T04:39:35;18.20;;;13.13;;
53594;SDS011;39479;45.720;11.310;2024-02-26T04:42:01;18.33;;;13.80;;
53594;SDS011;39479;45.720;11.310;2024-02-26T04:44:28;16.33;;;13.23;;
53594;SDS011;39479;45.720;11.310;2024-02-26T04:46:55;17.35;;;12.80;;
53594;SDS011;39479;45.720;11.310;2024-02-26T04:49:21;13.60;;;12.07;;
53594;SDS011;39479;45.720;11.310;2024-02-26T04:51:47;14.98;;;11.85;;
53594;SDS011;39479;45.720;11.310;2024-02-26T04:54:13;13.95;;;11.23;;
53594;SDS011;39479;45.720;11.310;2024-02-26T04:56:39;16.23;;;11.10;;
53594;SDS011;39479;45.720;11.310;2024-02-26T04:59:05;13.07;;;11.20;;
53594;SDS011;39479;45.720;11.310;2024-02-26T05:01:31;13.85;;;10.57;;
53594;SDS011;39479;45.720;11.310;2024-02-26T05:03:57;11.32;;;9.07;;
53594;SDS011;39479;45.720;11.310;2024-02-26T05:06:23;12.00;;;9.85;;
53594;SDS011;39479;45.720;11.310;2024-02-26T05:08:49;11.00;;;8.77;;
53594;SDS011;39479;45.720;11.310;2024-02-26T05:11:16;8.55;;;6.45;;
53594;SDS011;39479;45.720;11.310;2024-02-26T05:13:43;10.25;;;8.20;;
53594;SDS011;39479;45.720;11.310;2024-02-26T05:16:10;11.25;;;8.73;;
53594;SDS011;39479;45.720;11.310;2024-02-26T05:18:36;10.38;;;9.27;;
53594;SDS011;39479;45.720;11.310;2024-02-26T05:21:02;9.63;;;7.53;;
53594;SDS011;39479;45.720;11.310;2024-02-26T05:23:28;12.95;;;10.20;;
53594;SDS011;39479;45.720;11.310;2024-02-26T05:25:55;13.68;;;11.38;;
53594;SDS011;39479;45.720;11.310;2024-02-26T05:28:21;13.90;;;11.20;;
53594;SDS011;39479;45.720;11.310;2024-02-26T05:30:47;17.23;;;11.98;;
53594;SDS011;39479;45.720;11.310;2024-02-26T05:33:13;13.15;;;9.88;;
53594;SDS011;39479;45.720;11.310;2024-02-26T05:35:39;11.55;;;10.00;;
53594;SDS011;39479;45.720;11.310;2024-02-26T05:38:05;13.55;;;8.88;;
53594;SDS011;39479;45.720;11.310;2024-02-26T05:40:31;12.60;;;9.52;;
53594;SDS011;39479;45.720;11.310;2024-02-26T05:42:57;16.13;;;11.68;;
53594;SDS011;39479;45.720;11.310;2024-02-26T05:45:23;16.30;;;11.98;;
53594;SDS011;39479;45.720;11.310;2024-02-26T05:47:49;18.63;;;13.55;;
53594;SDS011;39479;45.720;11.310;2024-02-26T05:50:15;16.27;;;11.75;;
53594;SDS011;39479;45.720;11.310;2024-02-26T05:52:42;15.45;;;11.38;;
53594;SDS011;39479;45.720;11.310;2024-02-26T05:55:08;16.30;;;11.85;;
53594;SDS011;39479;45.720;11.310;2024-02-26T05:57:34;13.20;;;10.18;;
53594;SDS011;39479;45.720;11.310;2024-02-26T06:00:01;14.18;;;10.90;;
53594;SDS011;39479;45.720;11.310;2024-02-26T06:02:32;11.80;;;9.52;;
53594;SDS011;39479;45.720;11.310;2024-02-26T06:04:58;14.10;;;10.93;;
53594;SDS011;39479;45.720;11.310;2024-02-26T06:07:24;15.25;;;11.52;;
53594;SDS011;39479;45.720;11.310;2024-02-26T06:09:51;12.85;;;10.57;;
53594;SDS011;39479;45.720;11.310;2024-02-26T06:12:17;11.63;;;9.88;;
53594;SDS011;39479;45.720;11.310;2024-02-26T06:14:43;13.32;;;9.43;;
53594;SDS011;39479;45.720;11.310;2024-02-26T06:17:09;12.70;;;9.57;;
53594;SDS011;39479;45.720;11.310;2024-02-26T06:19:35;10.98;;;9.43;;
53594;SDS011;39479;45.720;11.310;2024-02-26T06:22:01;10.90;;;8.50;;
53594;SDS011;39479;45.720;11.310;2024-02-26T06:24:27;9.75;;;8.75;;
53594;SDS011;39479;45.720;11.310;2024-02-26T06:26:53;11.40;;;9.52;;
53594;SDS011;39479;45.720;11.310;2024-02-26T06:29:19;12.15;;;9.23;;
53594;SDS011;39479;45.720;11.310;2024-02-26T06:31:45;13.85;;;10.90;;
53594;SDS011;39479;45.720;11.310;2024-02-26T06:34:13;12.27;;;10.23;;
53594;SDS011;39479;45.720;11.310;2024-02-26T06:36:39;12.40;;;9.10;;
53594;SDS011;39479;45.720;11.310;2024-02-26T06:39:05;10.18;;;7.60;;
53594;SDS011;39479;45.720;11.310;2024-02-26T06:41:31;9.57;;;7.38;;
53594;SDS011;39479;45.720;11.310;2024-02-26T06:43:57;10.73;;;8.00;;
53594;SDS011;39479;45.720;11.310;2024-02-26T06:46:23;10.25;;;8.52;;
53594;SDS011;39479;45.720;11.310;2024-02-26T06:48:51;12.95;;;9.65;;
53594;SDS011;39479;45.720;11.310;2024-02-26T06:51:17;9.90;;;8.88;;
53594;SDS011;39479;45.720;11.310;2024-02-26T06:53:43;12.27;;;8.95;;
53594;SDS011;39479;45.720;11.310;2024-02-26T06:56:09;11.25;;;9.45;;
53594;SDS011;39479;45.720;11.310;2024-02-26T06:58:35;10.48;;;9.13;;
53594;SDS011;39479;45.720;11.310;2024-02-26T07:01:01;12.02;;;9.35;;
53594;SDS011;39479;45.720;11.310;2024-02-26T07:03:27;14.75;;;10.95;;
53594;SDS011;39479;45.720;11.310;2024-02-26T07:05:54;14.32;;;10.18;;
53594;SDS011;39479;45.720;11.310;2024-02-26T07:08:20;12.27;;;10.38;;
53594;SDS011;39479;45.720;11.310;2024-02-26T07:10:46;12.65;;;9.05;;
53594;SDS011;39479;45.720;11.310;2024-02-26T07:13:13;14.10;;;10.43;;
53594;SDS011;39479;45.720;11.310;2024-02-26T07:15:39;14.55;;;9.95;;
53594;SDS011;39479;45.720;11.310;2024-02-26T07:18:05;12.98;;;10.32;;
53594;SDS011;39479;45.720;11.310;2024-02-26T07:20:31;13.90;;;9.93;;
53594;SDS011;39479;45.720;11.310;2024-02-26T07:22:58;12.88;;;9.45;;
53594;SDS011;39479;45.720;11.310;2024-02-26T07:25:24;11.02;;;8.88;;
53594;SDS011;39479;45.720;11.310;2024-02-26T07:27:50;9.90;;;8.35;;
53594;SDS011;39479;45.720;11.310;2024-02-26T07:30:16;9.77;;;8.18;;
53594;SDS011;39479;45.720;11.310;2024-02-26T07:32:43;12.40;;;9.90;;
53594;SDS011;39479;45.720;11.310;2024-02-26T07:35:09;14.23;;;10.60;;
53594;SDS011;39479;45.720;11.310;2024-02-26T07:37:35;11.82;;;10.30;;
53594;SDS011;39479;45.720;11.310;2024-02-26T07:40:01;11.95;;;9.55;;
53594;SDS011;39479;45.720;11.310;2024-02-26T07:42:28;13.05;;;9.93;;
53594;SDS011;39479;45.720;11.310;2024-02-26T07:44:54;15.07;;;10.02;;
53594;SDS011;39479;45.720;11.310;2024-02-26T07:47:20;12.05;;;10.50;;
53594;SDS011;39479;45.720;11.310;2024-02-26T07:49:46;11.88;;;10.05;;
53594;SDS011;39479;45.720;11.310;2024-02-26T07:52:13;12.35;;;9.30;;
53594;SDS011;39479;45.720;11.310;2024-02-26T07:54:39;12.38;;;10.10;;
53594;SDS011;39479;45.720;11.310;2024-02-26T07:57:05;14.00;;;9.45;;
53594;SDS011;39479;45.720;11.310;2024-02-26T07:59:31;13.18;;;9.68;;
53594;SDS011;39479;45.720;11.310;2024-02-26T08:01:58;12.15;;;10.20;;
53594;SDS011;39479;45.720;11.310;2024-02-26T08:04:24;12.55;;;10.20;;
53594;SDS011;39479;45.720;11.310;2024-02-26T08:06:51;15.68;;;11.43;;
53594;SDS011;39479;45.720;11.310;2024-02-26T08:09:17;13.00;;;10.40;;
53594;SDS011;39479;45.720;11.310;2024-02-26T08:11:43;14.48;;;10.40;;
53594;SDS011;39479;45.720;11.310;2024-02-26T08:14:09;15.50;;;11.00;;
53594;SDS011;39479;45.720;11.310;2024-02-26T08:16:35;12.18;;;10.48;;
53594;SDS011;39479;45.720;11.310;2024-02-26T08:19:01;14.90;;;10.23;;
53594;SDS011;39479;45.720;11.310;2024-02-26T08:21:27;12.18;;;9.77;;
53594;SDS011;39479;45.720;11.310;2024-02-26T08:23:54;11.57;;;9.68;;
53594;SDS011;39479;45.720;11.310;2024-02-26T08:26:20;12.57;;;9.88;;
53594;SDS011;39479;45.720;11.310;2024-02-26T08:28:47;12.70;;;10.13;;
53594;SDS011;39479;45.720;11.310;2024-02-26T08:31:14;17.90;;;10.40;;
53594;SDS011;39479;45.720;11.310;2024-02-26T08:33:40;12.10;;;10.35;;
53594;SDS011;39479;45.720;11.310;2024-02-26T08:36:06;11.07;;;9.55;;
53594;SDS011;39479;45.720;11.310;2024-02-26T08:38:32;13.13;;;10.02;;
53594;SDS011;39479;45.720;11.310;2024-02-26T08:41:01;14.00;;;10.55;;
53594;SDS011;39479;45.720;11.310;2024-02-26T08:43:27;12.98;;;9.70;;
53594;SDS011;39479;45.720;11.310;2024-02-26T08:45:53;14.07;;;9.80;;
53594;SDS011;39479;45.720;11.310;2024-02-26T08:48:21;16.60;;;9.60;;
53594;SDS011;39479;45.720;11.310;2024-02-26T08:50:47;14.57;;;10.50;;
53594;SDS011;39479;45.720;11.310;2024-02-26T08:53:13;11.57;;;9.23;;
53594;SDS011;39479;45.720;11.310;2024-02-26T08:55:39;12.45;;;9.60;;
53594;SDS011;39479;45.720;11.310;2024-02-26T08:58:05;10.43;;;8.77;;
53594;SDS011;39479;45.720;11.310;2024-02-26T09:00:31;13.43;;;9.38;;
53594;SDS011;39479;45.720;11.310;2024-02-26T09:02:57;10.98;;;9.63;;
53594;SDS011;39479;45.720;11.310;2024-02-26T09:05:23;13.10;;;9.50;;
53594;SDS011;39479;45.720;11.310;2024-02-26T09:07:49;11.60;;;9.25;;
53594;SDS011;39479;45.720;11.310;2024-02-26T09:10:17;12.35;;;9.27;;
53594;SDS011;39479;45.720;11.310;2024-02-26T09:12:43;12.88;;;9.98;;
53594;SDS011;39479;45.720;11.310;2024-02-26T09:15:09;13.50;;;10.68;;
53594;SDS011;39479;45.720;11.310;2024-02-26T09:17:35;14.18;;;11.48;;
53594;SDS011;39479;45.720;11.310;2024-02-26T09:20:02;14.55;;;12.07;;
53594;SDS011;39479;45.720;11.310;2024-02-26T09:22:28;16.80;;;14.02;;
53594;SDS011;39479;45.720;11.310;2024-02-26T09:24:54;15.93;;;11.73;;
53594;SDS011;39479;45.720;11.310;2024-02-26T09:27:20;16.55;;;13.75;;
53594;SDS011;39479;45.720;11.310;2024-02-26T09:29:48;16.52;;;13.20;;
53594;SDS011;39479;45.720;11.310;2024-02-26T09:32:14;17.67;;;15.55;;
53594;SDS011;39479;45.720;11.310;2024-02-26T09:34:40;23.50;;;16.55;;
53594;SDS011;39479;45.720;11.310;2024-02-26T09:37:07;20.73;;;16.60;;
53594;SDS011;39479;45.720;11.310;2024-02-26T09:39:33;23.42;;;18.00;;
53594;SDS011;39479;45.720;11.310;2024-02-26T09:42:00;26.85;;;18.52;;
53594;SDS011;39479;45.720;11.310;2024-02-26T09:44:28;21.17;;;14.45;;
53594;SDS011;39479;45.720;11.310;2024-02-26T09:46:55;21.02;;;15.20;;
53594;SDS011;39479;45.720;11.310;2024-02-26T09:49:22;18.38;;;14.35;;
53594;SDS011;39479;45.720;11.310;2024-02-26T09:51:49;16.80;;;12.10;;
53594;SDS011;39479;45.720;11.310;2024-02-26T09:54:17;15.38;;;13.60;;
53594;SDS011;39479;45.720;11.310;2024-02-26T09:56:43;14.13;;;12.68;;
53594;SDS011;39479;45.720;11.310;2024-02-26T09:59:13;16.33;;;12.45;;
53594;SDS011;39479;45.720;11.310;2024-02-26T10:01:40;12.70;;;11.13;;
53594;SDS011;39479;45.720;11.310;2024-02-26T10:04:08;16.75;;;11.98;;
53594;SDS011;39479;45.720;11.310;2024-02-26T10:06:34;18.38;;;12.57;;
53594;SDS011;39479;45.720;11.310;2024-02-26T10:09:02;13.38;;;11.70;;
53594;SDS011;39479;45.720;11.310;2024-02-26T10:11:31;15.27;;;11.75;;
53594;SDS011;39479;45.720;11.310;2024-02-26T10:13:57;14.68;;;11.52;;
53594;SDS011;39479;45.720;11.310;2024-02-26T10:16:24;13.05;;;11.57;;
53594;SDS011;39479;45.720;11.310;2024-02-26T10:18:51;13.98;;;11.00;;
53594;SDS011;39479;45.720;11.310;2024-02-26T10:21:22;14.07;;;10.95;;
53594;SDS011;39479;45.720;11.310;2024-02-26T10:23:48;14.20;;;12.50;;
53594;SDS011;39479;45.720;11.310;2024-02-26T10:26:15;13.43;;;11.63;;
53594;SDS011;39479;45.720;11.310;2024-02-26T10:28:42;16.58;;;12.20;;
53594;SDS011;39479;45.720;11.310;2024-02-26T10:31:09;15.35;;;12.35;;
53594;SDS011;39479;45.720;11.310;2024-02-26T10:33:36;14.70;;;12.05;;
53594;SDS011;39479;45.720;11.310;2024-02-26T10:36:03;15.88;;;12.77;;
53594;SDS011;39479;45.720;11.310;2024-02-26T10:38:29;13.52;;;11.60;;
53594;SDS011;39479;45.720;11.310;2024-02-26T10:40:55;15.10;;;11.52;;
53594;SDS011;39479;45.720;11.310;2024-02-26T10:43:21;14.50;;;11.43;;
53594;SDS011;39479;45.720;11.310;2024-02-26T10:45:47;15.43;;;13.77;;
53594;SDS011;39479;45.720;11.310;2024-02-26T10:48:14;15.25;;;11.98;;
53594;SDS011;39479;45.720;11.310;2024-02-26T10:50:41;12.82;;;11.18;;
53594;SDS011;39479;45.720;11.310;2024-02-26T10:53:11;14.55;;;11.48;;
53594;SDS011;39479;45.720;11.310;2024-02-26T10:55:40;14.75;;;11.60;;
53594;SDS011;39479;45.720;11.310;2024-02-26T10:58:06;14.27;;;12.15;;
53594;SDS011;39479;45.720;11.310;2024-02-26T11:00:35;17.27;;;13.05;;
53594;SDS011;39479;45.720;11.310;2024-02-26T11:03:01;19.13;;;15.75;;
53594;SDS011;39479;45.720;11.310;2024-02-26T11:05:28;19.60;;;15.05;;
53594;SDS011;39479;45.720;11.310;2024-02-26T11:07:55;15.85;;;13.85;;
53594;SDS011;39479;45.720;11.310;2024-02-26T11:10:22;17.05;;;13.57;;
53594;SDS011;39479;45.720;11.310;2024-02-26T11:12:48;17.75;;;15.23;;
53594;SDS011;39479;45.720;11.310;2024-02-26T11:15:15;18.05;;;13.85;;
53594;SDS011;39479;45.720;11.310;2024-02-26T11:17:42;17.50;;;13.50;;
53594;SDS011;39479;45.720;11.310;2024-02-26T11:20:09;16.17;;;14.48;;
53594;SDS011;39479;45.720;11.310;2024-02-26T11:22:37;18.80;;;14.48;;
53594;SDS011;39479;45.720;11.310;2024-02-26T11:25:03;20.67;;;15.52;;
53594;SDS011;39479;45.720;11.310;2024-02-26T11:27:30;21.80;;;16.27;;
53594;SDS011;39479;45.720;11.310;2024-02-26T11:29:59;17.98;;;14.85;;
53594;SDS011;39479;45.720;11.310;2024-02-26T11:32:26;22.02;;;16.50;;
53594;SDS011;39479;45.720;11.310;2024-02-26T11:34:55;20.77;;;18.30;;
53594;SDS011;39479;45.720;11.310;2024-02-26T11:37:21;24.45;;;18.95;;
53594;SDS011;39479;45.720;11.310;2024-02-26T11:39:48;21.25;;;18.58;;
53594;SDS011;39479;45.720;11.310;2024-02-26T11:42:14;21.55;;;17.70;;
53594;SDS011;39479;45.720;11.310;2024-02-26T11:44:41;19.88;;;16.35;;
53594;SDS011;39479;45.720;11.310;2024-02-26T11:47:17;18.77;;;16.20;;
53594;SDS011;39479;45.720;11.310;2024-02-26T11:49:44;17.00;;;15.13;;
53594;SDS011;39479;45.720;11.310;2024-02-26T11:52:10;16.45;;;13.77;;
53594;SDS011;39479;45.720;11.310;2024-02-26T11:54:56;19.58;;;15.25;;
53594;SDS011;39479;45.720;11.310;2024-02-26T11:57:40;16.67;;;14.35;;
53594;SDS011;39479;45.720;11.310;2024-02-26T12:05:17;15.75;;;14.05;;
53594;SDS011;39479;45.720;11.310;2024-02-26T12:07:48;14.48;;;12.98;;
53594;SDS011;39479;45.720;11.310;2024-02-26T12:10:15;13.90;;;12.48;;
53594;SDS011;39479;45.720;11.310;2024-02-26T12:12:42;13.82;;;12.35;;
53594;SDS011;39479;45.720;11.310;2024-02-26T12:15:08;14.38;;;12.85;;
53594;SDS011;39479;45.720;11.310;2024-02-26T12:17:36;16.15;;;13.52;;
53594;SDS011;39479;45.720;11.310;2024-02-26T12:20:09;14.57;;;13.00;;
53594;SDS011;39479;45.720;11.310;2024-02-26T12:22:35;14.35;;;12.38;;
53594;SDS011;39479;45.720;11.310;2024-02-26T12:25:03;14.68;;;12.93;;
53594;SDS011;39479;45.720;11.310;2024-02-26T12:27:30;16.98;;;12.95;;
53594;SDS011;39479;45.720;11.310;2024-02-26T12:29:56;15.20;;;13.70;;
53594;SDS011;39479;45.720;11.310;2024-02-26T12:32:23;16.20;;;13.45;;
53594;SDS011;39479;45.720;11.310;2024-02-26T12:34:49;16.00;;;14.30;;
53594;SDS011;39479;45.720;11.310;2024-02-26T12:37:16;20.77;;;17.30;;
53594;SDS011;39479;45.720;11.310;2024-02-26T12:39:42;19.80;;;16.98;;
53594;SDS011;39479;45.720;11.310;2024-02-26T12:42:08;19.13;;;16.15;;
53594;SDS011;39479;45.720;11.310;2024-02-26T12:44:35;17.20;;;14.40;;
53594;SDS011;39479;45.720;11.310;2024-02-26T12:47:04;16.23;;;13.63;;
53594;SDS011;39479;45.720;11.310;2024-02-26T12:49:30;15.55;;;13.95;;
53594;SDS011;39479;45.720;11.310;2024-02-26T12:51:56;15.30;;;12.98;;
53594;SDS011;39479;45.720;11.310;2024-02-26T12:54:30;15.13;;;13.10;;
53594;SDS011;39479;45.720;11.310;2024-02-26T12:57:00;15.05;;;12.20;;
53594;SDS011;39479;45.720;11.310;2024-02-26T12:59:26;16.80;;;13.18;;
53594;SDS011;39479;45.720;11.310;2024-02-26T13:01:52;16.48;;;14.23;;
53594;SDS011;39479;45.720;11.310;2024-02-26T13:04:18;16.13;;;13.80;;
53594;SDS011;39479;45.720;11.310;2024-02-26T13:06:44;15.65;;;11.13;;
53594;SDS011;39479;45.720;11.310;2024-02-26T13:09:15;9.70;;;8.68;;
53594;SDS011;39479;45.720;11.310;2024-02-26T13:11:43;11.05;;;8.55;;
53594;SDS011;39479;45.720;11.310;2024-02-26T13:14:18;9.27;;;8.35;;
53594;SDS011;39479;45.720;11.310;2024-02-26T13:16:45;7.95;;;6.90;;
53594;SDS011;39479;45.720;11.310;2024-02-26T13:19:11;6.30;;;5.47;;
53594;SDS011;39479;45.720;11.310;2024-02-26T13:21:37;6.43;;;5.45;;
53594;SDS011;39479;45.720;11.310;2024-02-26T13:24:03;5.13;;;4.60;;
53594;SDS011;39479;45.720;11.310;2024-02-26T13:26:29;5.15;;;4.60;;
53594;SDS011;39479;45.720;11.310;2024-02-26T13:28:59;6.18;;;5.03;;
53594;SDS011;39479;45.720;11.310;2024-02-26T13:31:25;4.70;;;4.20;;
53594;SDS011;39479;45.720;11.310;2024-02-26T13:33:52;4.78;;;4.32;;
53594;SDS011;39479;45.720;11.310;2024-02-26T13:36:21;6.88;;;5.03;;
53594;SDS011;39479;45.720;11.310;2024-02-26T13:38:53;5.45;;;4.63;;
53594;SDS011;39479;45.720;11.310;2024-02-26T13:41:19;4.80;;;3.95;;
53594;SDS011;39479;45.720;11.310;2024-02-26T13:43:46;5.75;;;4.88;;
53594;SDS011;39479;45.720;11.310;2024-02-26T13:46:12;6.28;;;4.72;;
53594;SDS011;39479;45.720;11.310;2024-02-26T13:48:40;6.35;;;4.93;;
53594;SDS011;39479;45.720;11.310;2024-02-26T13:51:06;5.13;;;4.03;;
53594;SDS011;39479;45.720;11.310;2024-02-26T13:53:32;5.63;;;3.70;;
53594;SDS011;39479;45.720;11.310;2024-02-26T13:55:58;4.10;;;3.70;;
53594;SDS011;39479;45.720;11.310;2024-02-26T13:58:26;4.95;;;3.97;;
53594;SDS011;39479;45.720;11.310;2024-02-26T14:00:52;3.80;;;3.40;;
53594;SDS011;39479;45.720;11.310;2024-02-26T14:03:19;3.67;;;3.05;;
53594;SDS011;39479;45.720;11.310;2024-02-26T14:05:45;4.03;;;2.70;;
53594;SDS011;39479;45.720;11.310;2024-02-26T14:08:11;2.83;;;2.63;;
53594;SDS011;39479;45.720;11.310;2024-02-26T14:10:38;2.97;;;2.65;;
53594;SDS011;39479;45.720;11.310;2024-02-26T14:13:04;2.90;;;2.70;;
53594;SDS011;39479;45.720;11.310;2024-02-26T14:15:30;3.15;;;2.95;;